createdAt,value
2018-09-30T00:02:25.876Z,3.39
2018-09-30T00:08:20.858Z,4.27
2018-09-30T00:14:15.873Z,3.5
2018-09-30T00:20:10.953Z,3.22
2018-09-30T00:26:05.874Z,3.52
2018-09-30T00:32:00.925Z,3.1
2018-09-30T00:37:55.898Z,3.83
2018-09-30T00:43:50.897Z,3.11
2018-09-30T00:49:45.981Z,3.68
2018-09-30T00:55:40.918Z,3.27
2018-09-30T01:01:35.923Z,3.64
2018-09-30T01:07:30.910Z,3.37
2018-09-30T01:13:25.911Z,3
2018-09-30T01:19:20.947Z,3.08
2018-09-30T01:25:15.941Z,4.33
2018-09-30T01:31:10.951Z,3.57
2018-09-30T01:37:05.974Z,3.12
2018-09-30T01:43:00.934Z,3.58
2018-09-30T01:48:55.987Z,3.61
2018-09-30T01:54:50.955Z,3.09
2018-09-30T02:00:45.962Z,3.71
2018-09-30T02:06:41.010Z,3.56
2018-09-30T02:12:35.980Z,3.52
2018-09-30T02:18:30.994Z,3.33
2018-09-30T02:24:26.003Z,2.98
2018-09-30T02:30:21.015Z,3.51
2018-09-30T02:36:16.011Z,3.16
2018-09-30T02:42:11.021Z,2.99
2018-09-30T02:48:06.010Z,3.36
2018-09-30T02:54:01.105Z,2.93
2018-09-30T02:59:56.029Z,3.35
2018-09-30T03:05:51.061Z,3.14
2018-09-30T03:11:46.074Z,3.43
2018-09-30T03:17:41.040Z,2.7
2018-09-30T03:23:36.077Z,3.3
2018-09-30T03:29:31.071Z,3.37
2018-09-30T03:35:26.100Z,2.96
2018-09-30T03:41:21.108Z,2.75
2018-09-30T03:47:16.072Z,2.97
2018-09-30T03:53:11.092Z,2.85
2018-09-30T03:59:06.085Z,2.84
2018-09-30T04:05:01.092Z,2.74
2018-09-30T04:10:56.123Z,2.51
2018-09-30T04:16:51.165Z,2.57
2018-09-30T04:22:46.170Z,2.87
2018-09-30T04:28:41.112Z,2.74
2018-09-30T04:34:36.101Z,2.78
2018-09-30T04:40:31.104Z,3.01
2018-09-30T04:46:26.138Z,2.64
2018-09-30T04:52:21.116Z,2.47
2018-09-30T04:58:16.124Z,2.77
2018-09-30T05:04:11.202Z,2.61
2018-09-30T05:10:06.151Z,2.64
2018-09-30T05:16:01.231Z,2.73
2018-09-30T05:21:56.150Z,3.17
2018-09-30T05:27:51.185Z,2.25
2018-09-30T05:33:46.189Z,2.76
2018-09-30T05:39:41.172Z,2.68
2018-09-30T05:45:36.188Z,2.56
2018-09-30T05:51:31.243Z,2.72
2018-09-30T05:57:26.227Z,3.77
2018-09-30T06:03:21.214Z,3.56
2018-09-30T06:09:16.265Z,5.47
2018-09-30T06:15:11.213Z,5.7
2018-09-30T06:21:06.221Z,6.32
2018-09-30T06:27:01.222Z,5.46
2018-09-30T06:32:56.211Z,4.6
2018-09-30T06:38:51.233Z,5.2
2018-09-30T06:44:46.254Z,3.82
2018-09-30T06:50:41.303Z,3.1
2018-09-30T06:56:36.240Z,2.72
2018-09-30T07:02:31.247Z,3.67
2018-09-30T07:08:26.310Z,2.97
2018-09-30T07:14:21.280Z,2.51
2018-09-30T07:20:16.322Z,2.41
2018-09-30T07:26:11.317Z,2.31
2018-09-30T07:32:06.285Z,3.21
2018-09-30T07:38:01.328Z,2.74
2018-09-30T07:43:56.300Z,2.21
2018-09-30T07:49:51.302Z,2.31
2018-09-30T07:55:46.323Z,1.92
2018-09-30T08:01:41.294Z,2.11
2018-09-30T08:07:36.346Z,1.53
2018-09-30T08:13:31.362Z,1.99
2018-09-30T08:19:26.309Z,1.9
2018-09-30T08:25:21.387Z,1.74
2018-09-30T08:31:16.340Z,1.79
2018-09-30T08:37:11.353Z,2.12
2018-09-30T08:43:06.353Z,1.41
2018-09-30T08:49:01.375Z,1.98
2018-09-30T08:54:56.377Z,1.91
2018-09-30T09:00:51.362Z,1.92
2018-09-30T09:06:46.381Z,1.96
2018-09-30T09:12:41.356Z,1.99
2018-09-30T09:18:36.386Z,2.15
2018-09-30T09:24:31.387Z,1.78
2018-09-30T09:30:26.411Z,2.13
2018-09-30T09:36:21.385Z,2.29
2018-09-30T09:42:16.399Z,2.27
2018-09-30T09:48:11.402Z,2.6
2018-09-30T09:54:06.429Z,2.4
2018-09-30T10:00:01.421Z,2.34
2018-09-30T10:05:56.440Z,2.14
2018-09-30T10:11:51.423Z,2.54
2018-09-30T10:17:46.461Z,2.52
2018-09-30T10:23:41.444Z,2.12
2018-09-30T10:29:36.478Z,2.42
2018-09-30T10:35:31.473Z,2.02
2018-09-30T10:41:26.452Z,2.35
2018-09-30T10:47:21.468Z,2.47
2018-09-30T10:53:16.459Z,2.51
2018-09-30T10:59:11.477Z,2.75
2018-09-30T11:05:06.483Z,2.33
2018-09-30T11:11:01.474Z,2.19
2018-09-30T11:16:56.503Z,3.22
2018-09-30T11:22:51.506Z,2.62
2018-09-30T11:28:46.505Z,2.27
2018-09-30T11:34:41.515Z,2.56
2018-09-30T11:40:36.520Z,2.52
2018-09-30T11:46:31.513Z,1.97
2018-09-30T11:52:26.531Z,2.03
2018-09-30T11:58:21.532Z,2.16
2018-09-30T12:04:16.522Z,2.53
2018-09-30T12:10:11.568Z,2.27
2018-09-30T12:16:06.533Z,2.47
2018-09-30T12:22:01.558Z,2.27
2018-09-30T12:27:56.564Z,2.26
2018-09-30T12:33:51.570Z,2.17
2018-09-30T12:39:46.603Z,2.75
2018-09-30T12:45:41.613Z,2.48
2018-09-30T12:51:36.615Z,1.98
2018-09-30T12:57:31.603Z,2.33
2018-09-30T13:03:26.598Z,2.3
2018-09-30T13:09:21.595Z,2.11
2018-09-30T13:15:16.616Z,1.94
2018-09-30T13:21:11.604Z,1.73
2018-09-30T13:27:06.609Z,1.86
2018-09-30T13:33:01.637Z,2.18
2018-09-30T13:38:56.709Z,1.86
2018-09-30T13:44:51.670Z,2.34
2018-09-30T13:50:46.648Z,1.86
2018-09-30T13:56:41.647Z,2.16
2018-09-30T14:02:36.692Z,2.12
2018-09-30T14:08:31.683Z,2
2018-09-30T14:14:26.744Z,2.15
2018-09-30T14:20:21.692Z,2.02
2018-09-30T14:26:16.681Z,2.19
2018-09-30T14:32:11.681Z,1.97
2018-09-30T14:38:06.709Z,1.81
2018-09-30T14:44:01.728Z,1.88
2018-09-30T14:49:56.712Z,1.94
2018-09-30T14:55:51.782Z,2.08
2018-09-30T15:01:46.723Z,1.96
2018-09-30T15:07:41.756Z,2.12
2018-09-30T15:13:36.730Z,2.51
2018-09-30T15:19:31.732Z,2.08
2018-09-30T15:25:26.813Z,1.97
2018-09-30T15:31:21.742Z,2.2
2018-09-30T15:37:16.807Z,2.42
2018-09-30T15:43:11.771Z,2.02
2018-09-30T15:49:06.772Z,2.48
2018-09-30T15:55:01.780Z,2.2
2018-09-30T16:00:56.760Z,2.44
2018-09-30T16:06:51.833Z,2.4
2018-09-30T16:12:46.786Z,2.28
2018-09-30T16:18:41.782Z,2.3
2018-09-30T16:24:36.827Z,2.35
2018-09-30T16:30:31.809Z,3.25
2018-09-30T16:36:26.889Z,2.39
2018-09-30T16:42:21.803Z,3.2
2018-09-30T16:48:16.816Z,2.24
2018-09-30T16:54:11.828Z,2.73
2018-09-30T17:00:06.903Z,2.96
2018-09-30T17:06:01.838Z,2.63
2018-09-30T17:11:56.877Z,3.28
2018-09-30T17:17:51.870Z,3.29
2018-09-30T17:23:46.920Z,3.45
2018-09-30T17:29:41.873Z,2.59
2018-09-30T17:35:36.862Z,3.16
2018-09-30T17:41:31.888Z,3.05
2018-09-30T17:47:26.909Z,3.27
2018-09-30T17:53:21.890Z,3.19
2018-09-30T17:59:16.892Z,2.86
2018-09-30T18:05:11.915Z,2.83
2018-09-30T18:11:07.080Z,3.34
2018-09-30T18:17:02.028Z,2.54
2018-09-30T18:22:56.936Z,3.06
2018-09-30T18:28:51.920Z,3.1
2018-09-30T18:34:46.933Z,2.97
2018-09-30T18:40:41.962Z,3.27
2018-09-30T18:46:37.054Z,2.91
2018-09-30T18:52:31.932Z,2.6
2018-09-30T18:58:26.943Z,3.3
2018-09-30T19:04:21.963Z,3.21
2018-09-30T19:10:16.964Z,2.94
2018-09-30T19:16:12.159Z,3.2
2018-09-30T19:22:06.981Z,3.76
2018-09-30T19:28:01.979Z,3.06
2018-09-30T19:33:56.987Z,3.5
2018-09-30T19:39:51.987Z,3.13
2018-09-30T19:45:47.000Z,3.63
2018-09-30T19:51:41.979Z,3.38
2018-09-30T19:57:37.005Z,3.23
2018-09-30T20:03:32.068Z,3.67
2018-09-30T20:09:27.108Z,3.26
2018-09-30T20:15:22.154Z,3.21
2018-09-30T20:21:17.076Z,3.29
2018-09-30T20:27:12.041Z,3.05
2018-09-30T20:33:07.051Z,3.47
2018-09-30T20:39:02.035Z,3.46
2018-09-30T20:44:57.040Z,3.15
2018-09-30T20:50:52.046Z,3.31
2018-09-30T20:56:47.108Z,3.12
2018-09-30T21:02:42.067Z,3.97
2018-09-30T21:08:37.081Z,3.09
2018-09-30T21:14:32.127Z,3.62
2018-09-30T21:20:27.142Z,3.23
2018-09-30T21:26:22.087Z,3.16
2018-09-30T21:32:17.098Z,3.58
2018-09-30T21:38:12.113Z,3.15
2018-09-30T21:44:07.136Z,3.43
2018-09-30T21:50:02.122Z,3.31
2018-09-30T21:55:57.144Z,3.62
2018-09-30T22:01:52.190Z,3.21
2018-09-30T22:07:47.136Z,2.75
2018-09-30T22:13:42.179Z,3.07
2018-09-30T22:19:37.123Z,3.1
2018-09-30T22:25:32.189Z,3.47
2018-09-30T22:31:27.139Z,2.91
2018-09-30T22:37:22.184Z,3.03
2018-09-30T22:43:17.179Z,3.26
2018-09-30T22:49:12.151Z,3.27
2018-09-30T22:55:07.172Z,3.22
2018-09-30T23:01:02.222Z,3.4
2018-09-30T23:06:57.200Z,3.14
2018-09-30T23:12:52.250Z,3.18
2018-09-30T23:18:47.200Z,3.22
2018-09-30T23:24:42.253Z,3.18
2018-09-30T23:30:37.210Z,3.21
2018-09-30T23:36:32.261Z,2.89
2018-09-30T23:42:27.212Z,3.24
2018-09-30T23:48:22.250Z,2.98
2018-09-30T23:54:17.251Z,3.29
